Time;durP1;ratioP1;P1;durP2;ratioP2;P2;SDS_P1;SDS_P2;PMS_P1;PMS_P2;Temp;Humidity;BMP_temperature;BMP_pressure;BME280_temperature;BME280_humidity;BME280_pressure;Samples;Min_cycle;Max_cycle;Signal;HPM_P1;HPM_P2
2022/11/07 00:01:16;;;;;;;8.95;5.15;;;8.70;99.90;;;;;;4334982;28;10000300;-73
2022/11/07 00:03:41;;;;;;;7.88;4.78;;;8.70;99.90;;;;;;5018843;28;20032;-73
2022/11/07 00:06:07;;;;;;;9.18;4.82;;;8.70;99.90;;;;;;5018203;28;20017;-73
2022/11/07 00:08:33;;;;;;;10.77;4.65;;;8.70;99.90;;;;;;5026749;28;20030;-73
2022/11/07 00:11:01;;;;;;;7.30;4.78;;;8.80;99.90;;;;;;5017394;28;20117;-73
2022/11/07 00:13:28;;;;;;;7.32;4.88;;;8.70;99.90;;;;;;5023697;28;20087;-73
2022/11/07 00:15:58;;;;;;;7.68;4.90;;;8.70;99.90;;;;;;5021447;28;20117;-73
2022/11/07 00:18:23;;;;;;;7.93;4.22;;;8.70;99.90;;;;;;5023782;28;20524;-73
2022/11/07 00:20:49;;;;;;;7.13;4.93;;;8.80;99.90;;;;;;5023993;28;20080;-73
2022/11/07 00:23:15;;;;;;;6.03;4.63;;;8.80;99.90;;;;;;5020642;28;20030;-73
2022/11/07 00:25:40;;;;;;;7.18;4.97;;;8.80;99.90;;;;;;5019592;28;20036;-73
2022/11/07 00:28:06;;;;;;;8.80;4.85;;;8.80;99.90;;;;;;5024109;28;20034;-73
2022/11/07 00:30:32;;;;;;;7.45;4.60;;;8.80;99.90;;;;;;5030931;28;20049;-73
2022/11/07 00:32:57;;;;;;;7.13;5.10;;;8.80;99.90;;;;;;5016720;28;20560;-73
2022/11/07 00:35:23;;;;;;;7.43;4.90;;;8.80;99.90;;;;;;5015752;28;20025;-73
2022/11/07 00:37:48;;;;;;;7.53;4.20;;;8.80;99.90;;;;;;5020602;28;20045;-73
2022/11/07 00:40:14;;;;;;;10.98;4.47;;;8.90;99.90;;;;;;5023827;28;20525;-73
2022/11/07 00:42:40;;;;;;;8.50;4.57;;;8.90;99.90;;;;;;5018657;28;20030;-73
2022/11/07 00:45:06;;;;;;;9.48;4.75;;;8.80;99.90;;;;;;5020967;28;20040;-73
2022/11/07 00:47:32;;;;;;;8.15;4.53;;;8.90;99.90;;;;;;5021496;28;20121;-73
2022/11/07 00:49:57;;;;;;;7.38;4.43;;;8.80;99.90;;;;;;5024944;28;20108;-73
2022/11/07 00:52:23;;;;;;;7.90;4.50;;;8.90;99.90;;;;;;5017277;28;20060;-73
2022/11/07 00:54:48;;;;;;;7.57;4.57;;;8.90;99.90;;;;;;5022884;28;20042;-73
2022/11/07 00:57:14;;;;;;;7.30;4.70;;;8.90;99.90;;;;;;5015770;28;20092;-73
2022/11/07 00:59:40;;;;;;;8.05;5.00;;;8.90;99.90;;;;;;5023032;28;20024;-73
2022/11/07 01:02:05;;;;;;;8.95;5.00;;;8.90;99.90;;;;;;5017948;28;20079;-73
2022/11/07 01:07:15;;;;;;;7.90;4.55;;;8.90;99.90;;;;;;5021350;28;20032;-73
2022/11/07 01:09:41;;;;;;;8.75;4.35;;;8.90;99.90;;;;;;5025120;28;20026;-73
2022/11/07 01:12:06;;;;;;;5.05;4.22;;;8.90;99.90;;;;;;5023381;28;20753;-73
2022/11/07 01:14:32;;;;;;;6.93;4.38;;;9.00;99.90;;;;;;5017572;28;20071;-73
2022/11/07 01:16:57;;;;;;;7.28;4.25;;;8.90;99.90;;;;;;5016942;28;20026;-73
2022/11/07 01:19:23;;;;;;;7.85;4.63;;;8.90;99.90;;;;;;5024392;28;20036;-73
2022/11/07 01:21:49;;;;;;;6.75;4.30;;;8.90;99.90;;;;;;5028239;28;20033;-73
2022/11/07 01:24:16;;;;;;;7.38;4.40;;;8.90;99.90;;;;;;5017971;28;20057;-73
2022/11/07 01:26:46;;;;;;;7.15;4.25;;;8.90;99.90;;;;;;5023656;28;20087;-73
2022/11/07 01:29:12;;;;;;;9.38;4.40;;;8.90;99.90;;;;;;5020151;28;20037;-73
2022/11/07 01:31:39;;;;;;;10.13;4.00;;;8.90;99.90;;;;;;5023567;28;20567;-73
2022/11/07 01:34:05;;;;;;;9.40;4.28;;;8.90;99.90;;;;;;5021861;28;20025;-73
2022/11/07 01:36:31;;;;;;;5.88;3.72;;;9.00;99.90;;;;;;5025529;28;20140;-73
2022/11/07 01:38:57;;;;;;;6.45;3.92;;;9.00;99.90;;;;;;5031105;28;20072;-73
2022/11/07 01:41:29;;;;;;;6.88;4.25;;;9.00;99.90;;;;;;5024096;28;20488;-73
2022/11/07 01:44:01;;;;;;;6.63;3.83;;;9.00;99.90;;;;;;5019709;28;20820;-73
2022/11/07 01:46:33;;;;;;;6.40;3.95;;;9.00;99.90;;;;;;5012072;28;20401;-73
2022/11/07 01:49:19;;;;;;;6.18;3.80;;;9.00;99.90;;;;;;5014507;28;20088;-74
2022/11/07 01:52:05;;;;;;;9.13;4.25;;;9.00;99.90;;;;;;5017050;28;20029;-73
2022/11/07 01:54:37;;;;;;;7.45;3.80;;;9.00;99.90;;;;;;5019956;28;20033;-73
2022/11/07 01:57:08;;;;;;;5.75;3.75;;;9.00;99.90;;;;;;5021898;28;20094;-74
2022/11/07 01:59:36;;;;;;;6.25;3.63;;;9.00;99.90;;;;;;5021026;28;20065;-74
2022/11/07 02:02:03;;;;;;;5.25;3.90;;;9.00;99.90;;;;;;5020317;28;20038;-73
2022/11/07 02:04:30;;;;;;;10.85;3.90;;;9.00;99.90;;;;;;5020452;28;20041;-73
2022/11/07 02:07:20;;;;;;;7.07;4.03;;;9.00;99.90;;;;;;5016114;28;20042;-73
2022/11/07 02:09:46;;;;;;;6.28;3.75;;;9.00;99.90;;;;;;5020929;28;20021;-73
2022/11/07 02:12:13;;;;;;;6.32;3.90;;;9.00;99.90;;;;;;5022823;28;20038;-73
2022/11/07 02:14:41;;;;;;;5.72;3.60;;;9.00;99.90;;;;;;5018398;28;20501;-73
2022/11/07 02:17:07;;;;;;;5.97;3.78;;;9.00;99.90;;;;;;5020258;28;20037;-73
2022/11/07 02:19:43;;;;;;;6.05;4.13;;;9.00;99.90;;;;;;5029362;28;20029;-73
2022/11/07 02:22:17;;;;;;;6.63;3.90;;;9.00;99.90;;;;;;5010340;28;20489;-73
2022/11/07 02:24:44;;;;;;;7.28;4.00;;;9.00;99.90;;;;;;5023311;28;20216;-73
2022/11/07 02:27:13;;;;;;;7.72;3.40;;;9.00;99.90;;;;;;5023784;28;20085;-73
2022/11/07 02:29:42;;;;;;;10.30;3.80;;;9.00;99.90;;;;;;5025089;28;20045;-73
2022/11/07 02:32:10;;;;;;;6.85;3.78;;;9.00;99.90;;;;;;5009841;28;20026;-73
2022/11/07 02:34:36;;;;;;;7.28;3.63;;;9.00;99.90;;;;;;5024535;28;20131;-73
2022/11/07 02:37:31;;;;;;;5.45;3.42;;;9.00;99.90;;;;;;5014562;28;20034;-73
2022/11/07 02:39:59;;;;;;;6.90;3.88;;;9.00;99.90;;;;;;5017939;28;20517;-73
2022/11/07 02:42:26;;;;;;;5.90;3.92;;;9.00;99.90;;;;;;5020642;28;20034;-73
2022/11/07 02:44:54;;;;;;;5.38;3.50;;;9.00;99.90;;;;;;5023892;28;20363;-73
2022/11/07 02:47:20;;;;;;;5.68;3.83;;;9.10;99.90;;;;;;5018682;28;20067;-73
2022/11/07 02:49:45;;;;;;;10.52;3.90;;;9.10;99.90;;;;;;5020240;28;20029;-73
2022/11/07 02:52:11;;;;;;;4.80;3.38;;;9.10;99.90;;;;;;5031885;28;20033;-73
2022/11/07 02:54:36;;;;;;;6.10;3.60;;;9.00;99.90;;;;;;5018016;28;20371;-73
2022/11/07 02:57:02;;;;;;;5.05;3.63;;;9.00;99.90;;;;;;5009463;28;20025;-73
2022/11/07 02:59:28;;;;;;;6.43;3.90;;;9.10;99.90;;;;;;5018700;28;20031;-73
2022/11/07 03:01:53;;;;;;;6.45;3.60;;;9.10;99.90;;;;;;5027044;28;20033;-73
2022/11/07 03:04:19;;;;;;;5.63;3.80;;;9.00;99.90;;;;;;5020911;28;20018;-73
2022/11/07 03:06:44;;;;;;;7.68;3.95;;;9.00;99.90;;;;;;5020398;28;20120;-73
2022/11/07 03:09:10;;;;;;;7.15;4.05;;;9.00;99.90;;;;;;5018332;28;20091;-73
2022/11/07 03:11:36;;;;;;;6.30;3.78;;;8.90;99.90;;;;;;5029248;28;20065;-73
2022/11/07 03:14:02;;;;;;;7.00;3.97;;;8.90;99.90;;;;;;5022842;28;20030;-73
2022/11/07 03:16:27;;;;;;;6.53;3.75;;;8.90;99.90;;;;;;5020624;28;20043;-73
2022/11/07 03:18:53;;;;;;;5.88;3.72;;;8.90;99.90;;;;;;5019352;28;20037;-73
2022/11/07 03:21:19;;;;;;;5.35;3.78;;;9.00;99.90;;;;;;5032776;28;20029;-73
2022/11/07 03:23:44;;;;;;;5.53;3.70;;;9.00;99.90;;;;;;5008477;28;20034;-73
2022/11/07 03:26:10;;;;;;;5.03;3.33;;;9.00;99.90;;;;;;5019058;28;20057;-73
2022/11/07 03:28:35;;;;;;;7.45;3.83;;;9.00;99.90;;;;;;5020074;28;20026;-73
2022/11/07 03:31:03;;;;;;;7.90;4.00;;;9.00;99.90;;;;;;5028902;28;20303;-73
2022/11/07 03:33:29;;;;;;;6.50;3.78;;;8.90;99.90;;;;;;5022725;28;20274;-73
2022/11/07 03:35:55;;;;;;;5.57;4.05;;;8.80;99.90;;;;;;5024906;28;20108;-73
2022/11/07 03:38:21;;;;;;;8.77;4.07;;;8.80;99.90;;;;;;5017924;28;20116;-73
2022/11/07 03:40:47;;;;;;;9.63;4.82;;;8.80;99.90;;;;;;5020853;28;20040;-73
2022/11/07 03:43:12;;;;;;;10.57;4.13;;;8.70;99.90;;;;;;5025092;28;20025;-73
2022/11/07 03:45:38;;;;;;;14.23;4.45;;;8.70;99.90;;;;;;5016187;28;20080;-73
2022/11/07 03:48:04;;;;;;;7.35;3.97;;;8.80;99.90;;;;;;5024870;28;20500;-73
2022/11/07 03:50:29;;;;;;;7.15;4.38;;;8.70;99.90;;;;;;5021272;28;20362;-73
2022/11/07 03:52:55;;;;;;;8.00;4.15;;;8.80;99.90;;;;;;5025910;28;20132;-73
2022/11/07 03:55:21;;;;;;;5.55;4.00;;;8.80;99.90;;;;;;5024623;28;20048;-73
2022/11/07 03:57:47;;;;;;;7.53;4.25;;;8.80;99.90;;;;;;5026010;28;20070;-73
2022/11/07 04:00:14;;;;;;;7.05;3.85;;;8.90;99.90;;;;;;5016921;28;20067;-73
2022/11/07 04:02:41;;;;;;;6.45;4.32;;;8.90;99.90;;;;;;5023046;28;20592;-73
2022/11/07 04:05:07;;;;;;;5.55;4.00;;;8.90;99.90;;;;;;5021137;28;20499;-73
2022/11/07 04:07:33;;;;;;;7.50;4.40;;;8.90;99.90;;;;;;5033673;28;20074;-73
2022/11/07 04:09:59;;;;;;;6.65;4.20;;;8.90;99.90;;;;;;5030614;28;20040;-73
2022/11/07 04:17:55;;;;;;;5.90;4.15;;;9.00;99.90;;;;;;5014084;28;20172;-73
2022/11/07 04:20:21;;;;;;;7.30;4.40;;;9.00;99.90;;;;;;5019820;28;20048;-73
2022/11/07 04:22:47;;;;;;;9.50;4.85;;;9.00;99.90;;;;;;5018302;28;20037;-73
2022/11/07 04:25:12;;;;;;;9.90;4.80;;;9.00;99.90;;;;;;5026668;28;20029;-73
2022/11/07 04:27:41;;;;;;;7.85;4.65;;;9.00;99.90;;;;;;5022418;28;20507;-73
2022/11/07 04:30:25;;;;;;;8.18;5.50;;;9.00;99.90;;;;;;5016567;28;20525;-73
2022/11/07 04:32:56;;;;;;;8.27;5.03;;;9.00;99.90;;;;;;5016206;28;20033;-74
2022/11/07 04:35:24;;;;;;;7.85;5.00;;;8.90;99.90;;;;;;5017763;28;20037;-73
2022/11/07 04:37:50;;;;;;;9.40;5.25;;;8.90;99.90;;;;;;5019650;28;20022;-73
2022/11/07 04:40:16;;;;;;;12.23;5.65;;;8.90;99.90;;;;;;5024855;28;20390;-73
2022/11/07 04:42:43;;;;;;;10.63;5.65;;;8.90;99.90;;;;;;5020915;28;20025;-73
2022/11/07 04:45:09;;;;;;;7.30;5.35;;;8.90;99.90;;;;;;5021653;28;20511;-73
2022/11/07 04:47:35;;;;;;;12.85;5.82;;;8.90;99.90;;;;;;5019650;28;20048;-73
2022/11/07 04:50:02;;;;;;;10.07;5.80;;;8.90;99.90;;;;;;5019906;28;20486;-73
2022/11/07 04:52:28;;;;;;;11.68;5.85;;;8.80;99.90;;;;;;5020993;28;20061;-73
2022/11/07 04:54:54;;;;;;;9.95;5.80;;;;;;;;;;5017365;28;20478;-73
2022/11/07 04:57:20;;;;;;;8.77;5.22;;;;;;;;;;5018045;28;20516;-73
2022/11/07 04:59:46;;;;;;;10.02;5.80;;;;;;;;;;5022600;28;20376;-73
2022/11/07 05:02:12;;;;;;;9.82;5.95;;;;;;;;;;5022518;28;20021;-73
2022/11/07 05:04:39;;;;;;;11.52;5.82;;;;;;;;;;5013732;28;20067;-73
2022/11/07 05:07:05;;;;;;;10.30;5.30;;;;;;;;;;5015740;28;20084;-73
2022/11/07 05:09:33;;;;;;;13.18;6.00;;;;;;;;;;5016746;28;20119;-73
2022/11/07 05:11:59;;;;;;;9.50;5.90;;;;;;;;;;5017017;28;20549;-73
2022/11/07 05:14:25;;;;;;;12.70;6.35;;;;;;;;;;5018054;28;20057;-73
2022/11/07 05:16:52;;;;;;;11.40;5.80;;;;;;;;;;5021352;28;20049;-73
2022/11/07 05:19:18;;;;;;;11.05;5.90;;;;;;;;;;5019635;28;20034;-73
2022/11/07 05:21:45;;;;;;;8.57;5.82;;;;;;;;;;5015074;28;20087;-73
2022/11/07 05:24:11;;;;;;;10.48;5.70;;;;;;;;;;5018814;28;20092;-73
2022/11/07 05:26:37;;;;;;;11.02;5.85;;;;;;;;;;5022606;28;20022;-73
2022/11/07 05:29:04;;;;;;;11.90;6.13;;;9.20;99.90;;;;;;5020542;28;20191;-74
2022/11/07 05:31:30;;;;;;;9.27;5.68;;;9.20;99.90;;;;;;5020154;28;20029;-74
2022/11/07 05:33:55;;;;;;;11.88;6.07;;;9.20;99.90;;;;;;5022232;28;20371;-74
2022/11/07 05:36:23;;;;;;;8.05;5.68;;;9.20;99.90;;;;;;5014912;28;20489;-73
2022/11/07 05:38:51;;;;;;;10.25;5.47;;;9.20;99.90;;;;;;5021527;28;20488;-74
2022/11/07 05:41:18;;;;;;;9.23;5.50;;;9.20;99.90;;;;;;5022780;28;20464;-74
2022/11/07 05:43:44;;;;;;;11.05;5.68;;;9.20;99.90;;;;;;5019271;28;20056;-74
2022/11/07 05:46:10;;;;;;;10.38;5.82;;;9.20;99.90;;;;;;5016304;28;20040;-73
2022/11/07 05:48:36;;;;;;;10.75;5.60;;;9.30;99.90;;;;;;5014301;28;20033;-73
2022/11/07 05:51:02;;;;;;;9.98;5.78;;;9.20;99.90;;;;;;5024479;28;20033;-73
2022/11/07 05:53:29;;;;;;;10.30;6.07;;;9.20;99.90;;;;;;5018340;28;20037;-73
2022/11/07 05:55:55;;;;;;;11.40;5.97;;;9.20;99.90;;;;;;5009904;28;20088;-73
2022/11/07 05:58:21;;;;;;;13.88;5.97;;;9.20;99.90;;;;;;5012170;28;20026;-73
2022/11/07 06:00:47;;;;;;;9.93;5.72;;;9.20;99.90;;;;;;5016337;28;20033;-73
2022/11/07 06:03:13;;;;;;;15.52;6.10;;;9.20;99.90;;;;;;5006131;28;20030;-73
2022/11/07 06:05:40;;;;;;;12.13;6.03;;;9.20;99.90;;;;;;5037910;28;20030;-73
2022/11/07 06:08:08;;;;;;;11.75;6.13;;;9.20;99.90;;;;;;5025892;28;20041;-73
2022/11/07 06:10:35;;;;;;;12.85;6.45;;;9.20;99.90;;;;;;5015356;28;20156;-73
2022/11/07 06:13:04;;;;;;;10.80;6.00;;;9.20;99.90;;;;;;5011015;28;20034;-73
2022/11/07 06:15:32;;;;;;;10.98;5.88;;;9.20;99.90;;;;;;5015055;28;20489;-73
2022/11/07 06:18:01;;;;;;;9.68;5.78;;;9.10;99.90;;;;;;5019120;28;20087;-73
2022/11/07 06:20:27;;;;;;;11.48;6.50;;;9.20;99.90;;;;;;5022873;28;20408;-73
2022/11/07 06:22:57;;;;;;;11.45;7.20;;;9.20;99.90;;;;;;5036245;28;20489;-73
2022/11/07 06:25:24;;;;;;;15.27;7.72;;;;;;;;;;5013938;28;20037;-74
2022/11/07 06:27:50;;;;;;;12.63;6.85;;;;;;;;;;4999540;28;20029;-73
2022/11/07 06:30:16;;;;;;;10.23;6.68;;;;;;;;;;5010967;28;20417;-73
2022/11/07 06:32:44;;;;;;;18.55;7.57;;;;;;;;;;5007939;28;20030;-73
2022/11/07 06:35:10;;;;;;;11.90;7.00;;;;;;;;;;5009077;28;20037;-73
2022/11/07 06:37:36;;;;;;;15.27;7.13;;;;;;;;;;5020618;28;20025;-73
2022/11/07 06:40:02;;;;;;;15.05;8.27;;;;;;;;;;5019891;28;20052;-73
2022/11/07 06:42:28;;;;;;;11.98;7.40;;;;;;;;;;5014828;28;20076;-73
2022/11/07 06:44:54;;;;;;;13.73;8.23;;;;;;;;;;5018553;28;20022;-73
2022/11/07 06:47:20;;;;;;;13.15;7.65;;;;;;;;;;5021508;28;20401;-73
2022/11/07 06:49:46;;;;;;;17.45;8.07;;;;;;;;;;5007658;28;20036;-74
2022/11/07 06:52:13;;;;;;;14.18;7.82;;;;;;;;;;5018541;28;20033;-73
2022/11/07 06:54:39;;;;;;;16.33;8.75;;;;;;;;;;5021630;28;20260;-73
2022/11/07 06:57:05;;;;;;;16.42;8.63;;;;;;;;;;5021006;28;20394;-73
2022/11/07 06:59:31;;;;;;;19.40;9.88;;;;;;;;;;5017006;28;20429;-73
2022/11/07 07:01:57;;;;;;;11.77;7.50;;;;;;;;;;5025181;28;20034;-73
2022/11/07 07:04:23;;;;;;;12.50;7.47;;;;;;;;;;5031568;28;20032;-73
2022/11/07 07:06:49;;;;;;;16.63;6.75;;;;;;;;;;5023935;28;20033;-73
2022/11/07 07:09:15;;;;;;;16.83;7.47;;;;;;;;;;5014019;28;20061;-73
2022/11/07 07:11:43;;;;;;;15.13;6.93;;;;;;;;;;5026148;28;20021;-73
2022/11/07 07:14:09;;;;;;;15.65;7.45;;;;;;;;;;5028205;28;20699;-73
2022/11/07 07:16:35;;;;;;;11.90;6.68;;;;;;;;;;5038181;28;20029;-73
2022/11/07 07:19:01;;;;;;;15.20;6.68;;;;;;;;;;5028637;28;20116;-73
2022/11/07 07:21:27;;;;;;;14.57;6.25;;;;;;;;;;5021860;28;20551;-73
2022/11/07 07:23:53;;;;;;;16.88;9.27;;;;;;;;;;5018678;28;20036;-73
2022/11/07 07:26:19;;;;;;;14.85;7.75;;;;;;;;;;5028701;28;20053;-73
2022/11/07 07:28:45;;;;;;;14.73;6.80;;;9.80;99.90;;;;;;5019736;28;20052;-73
2022/11/07 07:31:13;;;;;;;9.70;6.22;;;9.70;99.90;;;;;;5048042;28;20063;-73
2022/11/07 07:33:43;;;;;;;16.17;6.47;;;9.80;99.90;;;;;;5010935;28;20040;-73
2022/11/07 07:36:09;;;;;;;16.10;6.55;;;9.80;99.90;;;;;;5020589;28;20345;-73
2022/11/07 07:38:35;;;;;;;13.00;6.07;;;9.80;99.90;;;;;;5036679;28;20902;-73
2022/11/07 07:41:01;;;;;;;8.98;5.72;;;9.90;99.90;;;;;;5031970;28;20397;-73
2022/11/07 07:43:28;;;;;;;17.30;5.28;;;10.00;99.90;;;;;;5031162;28;20025;-73
2022/11/07 07:45:58;;;;;;;14.68;5.28;;;10.00;99.90;;;;;;5030183;28;20545;-73
2022/11/07 07:48:24;;;;;;;10.40;5.05;;;10.10;99.90;;;;;;5021559;28;20076;-73
2022/11/07 07:50:50;;;;;;;14.10;4.70;;;10.20;99.90;;;;;;5021094;28;20037;-73
2022/11/07 07:53:15;;;;;;;22.88;6.22;;;10.30;99.90;;;;;;5031676;28;20044;-73
2022/11/07 07:55:42;;;;;;;8.98;4.68;;;10.30;99.90;;;;;;5037731;28;20033;-73
2022/11/07 07:58:08;;;;;;;9.88;4.50;;;10.40;99.90;;;;;;5027029;28;20086;-73
2022/11/07 08:00:34;;;;;;;11.40;4.95;;;10.50;99.90;;;;;;5025104;28;20107;-73
2022/11/07 08:03:06;;;;;;;8.35;4.50;;;10.70;99.90;;;;;;5025523;28;20658;-73
2022/11/07 08:05:31;;;;;;;12.57;4.25;;;10.70;99.90;;;;;;5025386;28;20084;-73
2022/11/07 08:07:57;;;;;;;13.15;5.38;;;10.70;99.90;;;;;;5010771;28;20259;-73
2022/11/07 08:10:23;;;;;;;15.30;6.28;;;10.70;99.90;;;;;;5028012;28;20033;-73
2022/11/07 08:12:50;;;;;;;10.20;5.25;;;;;;;;;;5025138;28;20029;-72
2022/11/07 08:15:17;;;;;;;15.98;5.68;;;;;;;;;;5030476;28;20079;-73
2022/11/07 08:17:43;;;;;;;15.63;5.80;;;;;;;;;;5023797;28;20500;-73
2022/11/07 08:20:11;;;;;;;5.25;4.03;;;10.70;99.90;;;;;;5015579;28;20044;-74
2022/11/07 08:22:37;;;;;;;9.07;3.92;;;10.80;99.90;;;;;;5007939;28;20034;-74
2022/11/07 08:25:04;;;;;;;11.55;3.88;;;10.90;99.90;;;;;;5022907;28;20048;-74
2022/11/07 08:27:30;;;;;;;10.15;3.30;;;10.90;99.90;;;;;;5014507;28;20033;-74
2022/11/07 08:29:56;;;;;;;7.45;3.33;;;10.90;99.90;;;;;;5012623;28;20790;-74
2022/11/07 08:32:22;;;;;;;7.75;3.53;;;10.90;99.90;;;;;;5011492;28;20382;-74
2022/11/07 08:34:48;;;;;;;7.85;3.55;;;11.00;99.90;;;;;;5019200;28;20025;-74
2022/11/07 08:37:14;;;;;;;12.35;4.20;;;11.00;99.90;;;;;;5018262;28;20032;-74
2022/11/07 08:39:39;;;;;;;9.32;3.53;;;11.00;99.90;;;;;;5016143;28;20482;-74
2022/11/07 08:42:05;;;;;;;12.35;3.30;;;11.00;99.90;;;;;;5014453;28;20026;-74
2022/11/07 08:44:35;;;;;;;6.00;3.20;;;11.10;99.90;;;;;;5017054;28;20172;-74
2022/11/07 08:47:01;;;;;;;6.45;2.85;;;11.10;99.90;;;;;;5018930;28;20090;-74
2022/11/07 08:49:27;;;;;;;6.10;3.10;;;11.10;99.90;;;;;;5018151;28;20033;-74
2022/11/07 08:51:52;;;;;;;11.40;3.10;;;11.10;99.90;;;;;;5010510;28;20389;-74
2022/11/07 08:54:20;;;;;;;16.13;3.63;;;11.10;99.90;;;;;;5009302;28;20772;-74
2022/11/07 08:56:46;;;;;;;9.07;2.80;;;11.10;99.90;;;;;;5021174;28;20110;-74
2022/11/07 08:59:11;;;;;;;8.40;2.88;;;11.20;99.90;;;;;;5014203;28;20060;-74
2022/11/07 09:01:37;;;;;;;9.43;2.90;;;11.20;99.90;;;;;;5020532;28;20485;-74
2022/11/07 09:04:03;;;;;;;9.65;2.83;;;11.30;99.90;;;;;;5024165;28;20100;-74
2022/11/07 09:06:29;;;;;;;8.00;2.50;;;11.30;99.90;;;;;;5024124;28;20034;-74
2022/11/07 09:08:54;;;;;;;7.00;2.30;;;11.40;99.90;;;;;;5022797;28;20057;-74
2022/11/07 09:11:20;;;;;;;11.15;2.70;;;11.40;99.90;;;;;;5019880;28;20044;-74
2022/11/07 09:13:47;;;;;;;9.98;2.67;;;11.40;99.90;;;;;;5023555;28;20040;-74
2022/11/07 09:16:16;;;;;;;6.22;2.58;;;11.50;99.90;;;;;;5013509;28;20397;-74
2022/11/07 09:18:43;;;;;;;10.88;2.97;;;11.50;99.90;;;;;;5010404;28;20092;-74
2022/11/07 09:21:09;;;;;;;10.00;4.63;;;11.60;99.90;;;;;;5012409;28;20033;-74
2022/11/07 09:23:35;;;;;;;10.95;4.05;;;11.60;99.90;;;;;;4673947;28;10000088;-74
2022/11/07 09:26:01;;;;;;;10.70;4.43;;;11.60;99.90;;;;;;5021347;28;20384;-74
2022/11/07 09:28:26;;;;;;;8.10;2.92;;;11.70;99.90;;;;;;5013853;28;20040;-74
2022/11/07 09:30:53;;;;;;;11.27;2.78;;;11.70;99.90;;;;;;5019313;28;20538;-74
2022/11/07 09:33:19;;;;;;;9.32;2.60;;;11.80;99.90;;;;;;5003259;28;20559;-74
2022/11/07 09:35:46;;;;;;;7.53;2.67;;;11.80;99.90;;;;;;5003409;28;20386;-74
2022/11/07 09:38:14;;;;;;;9.48;2.80;;;11.80;99.90;;;;;;5018434;28;20045;-74
2022/11/07 09:41:06;;;;;;;9.40;2.63;;;11.80;99.90;;;;;;5015827;28;20025;-75
2022/11/07 09:43:39;;;;;;;10.77;2.97;;;11.80;99.90;;;;;;5019068;28;20416;-75
2022/11/07 09:46:19;;;;;;;9.23;2.95;;;11.80;99.90;;;;;;5005343;28;20029;-74
2022/11/07 09:48:49;;;;;;;7.63;2.45;;;;;;;;;;5018928;28;20456;-75
2022/11/07 09:51:28;;;;;;;9.15;3.17;;;11.90;99.90;;;;;;5025220;28;20026;-75
2022/11/07 09:53:58;;;;;;;17.60;6.40;;;11.90;99.90;;;;;;5010924;28;20758;-75
2022/11/07 09:56:27;;;;;;;10.65;4.60;;;11.80;99.90;;;;;;5021802;28;20033;-74
2022/11/07 09:58:54;;;;;;;9.52;3.38;;;11.80;99.90;;;;;;5018072;28;20030;-74
2022/11/07 10:01:20;;;;;;;8.57;2.85;;;11.80;99.90;;;;;;5015804;28;20105;-75
2022/11/07 10:03:46;;;;;;;11.57;3.33;;;11.80;99.90;;;;;;5021424;28;20399;-74
2022/11/07 10:06:30;;;;;;;7.20;2.63;;;11.90;99.90;;;;;;5017295;28;20552;-75
2022/11/07 10:09:11;;;;;;;;;;;11.90;99.90;;;;;;5007414;28;20406;-75
2022/11/07 10:12:03;;;;;;;8.45;2.58;;;11.90;99.90;;;;;;5006946;28;20420;-75
2022/11/07 10:14:41;;;;;;;9.05;2.83;;;12.00;99.90;;;;;;5001004;28;20618;-74
2022/11/07 10:17:25;;;;;;;9.00;3.00;;;12.00;99.90;;;;;;5014455;28;20033;-74
2022/11/07 10:19:54;;;;;;;9.35;2.75;;;12.10;99.90;;;;;;5011611;28;20026;-74
2022/11/07 10:22:32;;;;;;;12.95;4.68;;;12.20;99.90;;;;;;5014254;28;20060;-74
2022/11/07 10:25:12;;;;;;;9.75;3.80;;;12.10;99.90;;;;;;5007118;28;20104;-75
2022/11/07 10:27:38;;;;;;;11.80;3.47;;;12.20;99.90;;;;;;4983901;28;20022;-75
2022/11/07 10:30:19;;;;;;;11.18;3.83;;;12.20;99.90;;;;;;4988282;28;20053;-75
2022/11/07 10:32:55;;;;;;;9.55;3.35;;;12.20;99.90;;;;;;4982734;28;20426;-75
2022/11/07 10:35:26;;;;;;;8.10;2.55;;;12.20;99.90;;;;;;4997658;28;20030;-74
2022/11/07 10:38:00;;;;;;;7.13;2.80;;;12.20;99.90;;;;;;4984356;28;20576;-74
2022/11/07 10:40:39;;;;;;;11.10;3.95;;;12.20;99.90;;;;;;4988260;28;20030;-74
2022/11/07 10:43:33;;;;;;;12.05;3.10;;;12.20;99.90;;;;;;4990237;28;20037;-73
2022/11/07 10:46:09;;;;;;;8.77;3.00;;;12.20;99.90;;;;;;4986761;28;20073;-76
2022/11/07 10:48:34;;;;;;;11.73;3.75;;;12.20;99.90;;;;;;4981766;28;20064;-80
2022/11/07 10:51:00;;;;;;;7.85;3.72;;;12.20;99.90;;;;;;4984515;28;20868;-80
2022/11/07 10:53:26;;;;;;;13.48;3.65;;;12.20;99.90;;;;;;4984077;28;20036;-80
2022/11/07 10:55:53;;;;;;;8.10;2.67;;;12.20;99.90;;;;;;4982837;28;20582;-80
2022/11/07 10:58:34;;;;;;;11.27;3.42;;;12.30;99.90;;;;;;4984865;28;20108;-80
2022/11/07 11:01:05;;;;;;;14.05;3.70;;;12.20;99.90;;;;;;4983197;28;20094;-80
2022/11/07 11:03:38;;;;;;;11.00;5.60;;;12.20;99.90;;;;;;4988866;28;20902;-80
2022/11/07 11:06:17;;;;;;;13.00;6.75;;;12.30;99.90;;;;;;4989469;28;20037;-80
2022/11/07 11:08:48;;;;;;;16.75;3.75;;;12.30;99.90;;;;;;4987861;28;20038;-80
2022/11/07 11:11:28;;;;;;;11.07;5.43;;;12.30;99.90;;;;;;4996007;28;20040;-80
2022/11/07 11:14:02;;;;;;;11.73;4.63;;;12.30;99.90;;;;;;4995262;28;20294;-80
2022/11/07 11:16:29;;;;;;;11.63;4.97;;;12.30;99.90;;;;;;4994054;28;20041;-80
2022/11/07 11:18:58;;;;;;;13.57;5.00;;;12.30;99.90;;;;;;4993757;28;20037;-79
2022/11/07 11:21:24;;;;;;;13.20;4.90;;;12.40;99.90;;;;;;4993443;28;20030;-79
2022/11/07 11:23:52;;;;;;;14.27;4.68;;;12.40;99.90;;;;;;4992849;28;20053;-78
2022/11/07 11:26:28;;;;;;;7.53;2.30;;;12.50;99.90;;;;;;4994352;28;20388;-78
2022/11/07 11:29:05;;;;;;;5.43;2.30;;;12.50;99.90;;;;;;4991397;28;20640;-77
2022/11/07 11:31:42;;;;;;;10.48;3.90;;;12.50;99.90;;;;;;5000525;28;20071;-77
2022/11/07 11:34:25;;;;;;;10.80;3.25;;;12.40;99.90;;;;;;5008153;28;20053;-77
2022/11/07 11:37:08;;;;;;;16.30;3.88;;;12.40;99.90;;;;;;5026753;28;20116;-77
2022/11/07 11:39:58;;;;;;;15.27;4.32;;;12.40;99.90;;;;;;5015447;28;20029;-78
2022/11/07 11:42:29;;;;;;;8.20;3.40;;;12.40;99.90;;;;;;5024347;28;20593;-77
2022/11/07 11:44:58;;;;;;;22.88;9.07;;;12.40;99.90;;;;;;5009008;28;20028;-78
2022/11/07 11:47:33;;;;;;;14.32;7.07;;;12.50;99.90;;;;;;5022259;28;20025;-78
2022/11/07 11:50:08;;;;;;;5.60;2.58;;;12.50;99.90;;;;;;5022500;28;20037;-78
2022/11/07 11:52:34;;;;;;;8.40;2.50;;;12.50;99.90;;;;;;5015482;28;20108;-78
2022/11/07 11:55:01;;;;;;;7.90;2.15;;;12.50;99.90;;;;;;5009272;28;20045;-78
2022/11/07 11:58:00;;;;;;;8.50;2.70;;;12.50;99.90;;;;;;5026218;28;20021;-77
2022/11/07 12:00:26;;;;;;;10.20;3.35;;;12.60;99.90;;;;;;5019811;28;20026;-77
2022/11/07 12:03:06;;;;;;;8.93;3.35;;;12.60;99.90;;;;;;5020825;28;20442;-76
2022/11/07 12:06:13;;;;;;;11.13;4.60;;;12.60;99.90;;;;;;5018751;28;20037;-76
2022/11/07 12:09:31;;;;;;;13.93;4.18;;;12.60;99.90;;;;;;4783398;28;10001140;-75
2022/11/07 12:12:06;;;;;;;10.27;3.38;;;12.60;99.90;;;;;;5030164;28;20492;-75
2022/11/07 12:14:44;;;;;;;9.60;2.90;;;12.60;99.90;;;;;;5029665;28;20402;-75
2022/11/07 12:17:23;;;;;;;12.55;3.90;;;12.60;99.90;;;;;;5018961;28;20029;-76
2022/11/07 12:20:16;;;;;;;11.02;3.08;;;12.60;99.90;;;;;;5034230;28;20553;-75
2022/11/07 12:22:51;;;;;;;;;;;12.60;99.90;;;;;;5033042;28;20039;-76
2022/11/07 12:25:23;;;;;;;10.48;3.35;;;12.50;99.90;;;;;;5017784;28;19917;-75
2022/11/07 12:28:00;;;;;;;10.57;3.57;;;12.60;99.90;;;;;;5024687;28;20030;-76
2022/11/07 12:30:48;;;;;;;10.48;3.70;;;12.60;99.90;;;;;;5022081;28;20156;-75
2022/11/07 12:33:24;;;;;;;10.35;3.20;;;12.60;99.90;;;;;;5034518;28;20087;-76
2022/11/07 12:36:00;;;;;;;8.98;3.53;;;12.60;99.90;;;;;;5016708;28;20516;-76
2022/11/07 12:38:26;;;;;;;9.57;3.42;;;12.60;99.90;;;;;;5028576;28;20458;-76
2022/11/07 12:41:16;;;;;;;10.25;2.50;;;12.60;99.90;;;;;;5032988;28;20056;-77
2022/11/07 12:43:49;;;;;;;8.18;2.95;;;12.60;99.90;;;;;;5021232;28;20108;-75
2022/11/07 12:46:45;;;;;;;6.63;2.60;;;12.60;99.90;;;;;;5024674;28;20045;-76
2022/11/07 12:49:43;;;;;;;10.30;1.98;;;12.60;99.90;;;;;;5015977;28;20065;-76
2022/11/07 12:52:31;;;;;;;11.00;2.78;;;12.60;99.90;;;;;;5017074;28;20087;-77
2022/11/07 12:55:23;;;;;;;10.27;4.13;;;12.60;99.90;;;;;;4800977;28;10001012;-77
2022/11/07 12:57:51;;;;;;;13.73;4.57;;;12.60;99.90;;;;;;5004478;28;20259;-77
2022/11/07 13:00:23;;;;;;;12.10;3.25;;;12.60;99.90;;;;;;5017446;28;20033;-77
2022/11/07 13:03:07;;;;;;;11.15;4.10;;;12.50;99.90;;;;;;5009859;28;20057;-76
2022/11/07 13:06:07;;;;;;;8.32;2.55;;;12.50;99.90;;;;;;5020998;28;20030;-77
2022/11/07 13:08:32;;;;;;;11.05;3.78;;;12.50;99.90;;;;;;5020205;28;20029;-77
2022/11/07 13:11:14;;;;;;;15.30;2.72;;;12.50;99.90;;;;;;5013506;28;20508;-76
2022/11/07 13:13:58;;;;;;;12.82;3.10;;;12.50;99.90;;;;;;5013789;28;20037;-76
2022/11/07 13:16:30;;;;;;;12.07;2.88;;;12.50;99.90;;;;;;5009095;28;20044;-77
2022/11/07 13:19:42;;;;;;;12.18;3.40;;;12.50;99.90;;;;;;5008421;28;20057;-78
2022/11/07 13:22:20;;;;;;;9.53;3.40;;;12.50;99.90;;;;;;4328775;28;10000713;-77